createdAt,value
2023-05-03T00:03:11.422Z,99.90
2023-05-03T00:07:28.712Z,99.90
2023-05-03T00:11:45.875Z,99.90
2023-05-03T00:16:03.348Z,99.90
2023-05-03T00:20:20.703Z,99.90
2023-05-03T00:24:38.002Z,99.90
2023-05-03T00:28:55.176Z,99.90
2023-05-03T00:33:12.432Z,99.90
2023-05-03T00:37:30.895Z,99.90
2023-05-03T00:41:48.044Z,99.90
2023-05-03T00:46:16.209Z,99.90
2023-05-03T00:50:35.648Z,99.90
2023-05-03T00:54:53.442Z,99.90
2023-05-03T00:59:12.307Z,99.90
2023-05-03T01:03:29.592Z,99.90
2023-05-03T01:08:00.821Z,99.90
2023-05-03T01:12:30.658Z,99.90
2023-05-03T01:16:51.751Z,99.90
2023-05-03T01:21:10.618Z,99.90
2023-05-03T01:25:27.882Z,99.90
2023-05-03T01:29:45.707Z,99.90
2023-05-03T01:34:26.125Z,99.90
2023-05-03T01:38:43.601Z,99.90
2023-05-03T01:43:02.006Z,99.90
2023-05-03T01:47:19.222Z,99.90
2023-05-03T01:51:36.570Z,99.90
2023-05-03T01:55:53.815Z,99.90
2023-05-03T02:00:11.692Z,99.90
2023-05-03T02:04:30.234Z,99.90
2023-05-03T02:08:47.428Z,99.90
2023-05-03T02:13:04.565Z,99.90
2023-05-03T02:17:22.121Z,99.90
2023-05-03T02:21:39.394Z,99.90
2023-05-03T02:25:57.870Z,99.90
2023-05-03T02:30:15.064Z,99.90
2023-05-03T02:34:33.074Z,99.90
2023-05-03T02:38:50.325Z,99.90
2023-05-03T02:43:07.540Z,99.90
2023-05-03T02:47:24.731Z,99.90
2023-05-03T02:51:42.250Z,99.90
2023-05-03T02:55:59.429Z,99.90
2023-05-03T03:00:16.778Z,99.90
2023-05-03T03:04:35.351Z,99.90
2023-05-03T03:08:52.568Z,99.90
2023-05-03T03:13:09.727Z,99.90
2023-05-03T03:17:27.490Z,99.90
2023-05-03T03:21:44.784Z,99.90
2023-05-03T03:26:01.928Z,99.90
2023-05-03T03:30:19.521Z,99.90
2023-05-03T03:34:37.053Z,99.90
2023-05-03T03:38:54.227Z,99.90
2023-05-03T03:43:11.516Z,99.90
2023-05-03T03:47:28.645Z,99.90
2023-05-03T03:51:45.881Z,99.90
2023-05-03T03:56:03.090Z,99.90
2023-05-03T04:00:20.268Z,99.90
2023-05-03T04:04:37.537Z,99.90
2023-05-03T04:08:55.149Z,99.90
2023-05-03T04:13:14.052Z,99.90
2023-05-03T04:17:34.817Z,99.90
2023-05-03T04:21:52.526Z,99.90
2023-05-03T04:26:14.594Z,99.90
2023-05-03T04:30:43.783Z,99.90
2023-05-03T04:35:00.985Z,99.90
2023-05-03T04:39:18.208Z,99.90
2023-05-03T04:43:35.952Z,99.90
2023-05-03T04:47:53.358Z,99.90
2023-05-03T04:52:11.036Z,99.90
2023-05-03T04:56:29.517Z,99.90
2023-05-03T05:00:46.965Z,99.90
2023-05-03T05:05:04.167Z,99.90
2023-05-03T05:09:26.502Z,99.90
2023-05-03T05:13:43.718Z,99.90
2023-05-03T05:18:00.963Z,99.90
2023-05-03T05:22:19.744Z,99.90
2023-05-03T05:26:36.889Z,99.90
2023-05-03T05:30:54.157Z,99.90
2023-05-03T05:35:11.355Z,99.90
2023-05-03T05:39:28.456Z,99.90
2023-05-03T05:43:45.621Z,99.90
2023-05-03T05:48:02.841Z,99.90
2023-05-03T05:52:19.969Z,99.90
2023-05-03T05:56:37.616Z,99.90
2023-05-03T06:01:01.455Z,99.90
2023-05-03T06:05:19.230Z,99.90
2023-05-03T06:09:36.428Z,99.90
2023-05-03T06:13:53.627Z,99.90
2023-05-03T06:18:11.040Z,99.90
2023-05-03T06:22:28.181Z,99.90
2023-05-03T06:26:45.368Z,99.90
2023-05-03T06:31:02.702Z,99.90
2023-05-03T06:35:21.869Z,99.90
2023-05-03T06:39:39.274Z,99.90
2023-05-03T06:43:56.508Z,99.90
2023-05-03T06:48:13.809Z,99.90
2023-05-03T06:52:31.251Z,99.90
2023-05-03T06:56:48.409Z,99.90
2023-05-03T07:01:05.633Z,99.90
2023-05-03T07:05:22.839Z,99.90
2023-05-03T07:09:43.621Z,99.90
2023-05-03T07:14:01.275Z,99.90
2023-05-03T07:18:18.730Z,99.90
2023-05-03T07:22:39.290Z,99.90
2023-05-03T07:26:58.291Z,99.90
2023-05-03T07:31:15.636Z,99.90
2023-05-03T07:35:33.054Z,99.90
2023-05-03T07:39:50.204Z,99.90
2023-05-03T07:44:07.833Z,99.90
2023-05-03T07:48:25.204Z,99.90
2023-05-03T07:52:43.471Z,99.90
2023-05-03T07:57:00.978Z,99.90
2023-05-03T08:01:18.108Z,99.90
2023-05-03T08:05:36.720Z,95.00
2023-05-03T08:09:53.948Z,95.80
2023-05-03T08:14:12.409Z,95.10
2023-05-03T08:18:29.725Z,95.90
2023-05-03T08:22:47.198Z,91.40
2023-05-03T08:27:05.860Z,89.00
2023-05-03T08:31:23.203Z,89.80
2023-05-03T08:35:40.860Z,88.00
2023-05-03T08:40:01.292Z,82.80
2023-05-03T08:44:25.810Z,85.30
2023-05-03T08:48:45.020Z,78.00
2023-05-03T08:53:04.473Z,81.30
2023-05-03T08:57:24.703Z,78.40
2023-05-03T09:01:43.114Z,74.90
2023-05-03T09:06:03.465Z,76.20
2023-05-03T09:10:24.558Z,72.60
2023-05-03T09:14:43.999Z,74.30
2023-05-03T09:19:03.432Z,71.20
2023-05-03T09:23:31.062Z,74.50
2023-05-03T09:28:01.249Z,74.80
2023-05-03T09:32:19.690Z,70.70
2023-05-03T09:36:47.631Z,68.90
2023-05-03T09:41:08.079Z,68.90
2023-05-03T09:45:25.327Z,70.00
2023-05-03T09:49:43.110Z,66.70
2023-05-03T09:54:01.137Z,65.80
2023-05-03T09:58:19.009Z,64.80
2023-05-03T10:02:36.554Z,63.10
2023-05-03T10:07:00.885Z,62.70
2023-05-03T10:11:18.609Z,67.70
2023-05-03T10:15:37.801Z,65.10
2023-05-03T10:20:07.003Z,64.50
2023-05-03T10:24:24.304Z,65.80
2023-05-03T10:28:41.441Z,64.60
2023-05-03T10:33:00.341Z,63.20
2023-05-03T10:37:17.604Z,64.70
2023-05-03T10:41:34.744Z,62.70
2023-05-03T10:45:51.942Z,62.60
2023-05-03T10:50:11.844Z,59.00
2023-05-03T10:54:29.511Z,59.30
2023-05-03T10:58:48.675Z,58.20
2023-05-03T11:03:33.905Z,59.60
2023-05-03T11:07:51.179Z,59.50
2023-05-03T11:12:08.757Z,58.10
2023-05-03T11:16:26.621Z,65.00
2023-05-03T11:20:44.402Z,57.70
2023-05-03T11:25:01.645Z,61.00
2023-05-03T11:29:19.503Z,61.00
2023-05-03T11:33:38.044Z,56.90
2023-05-03T11:37:55.880Z,56.60
2023-05-03T11:42:13.387Z,58.70
2023-05-03T11:46:34.057Z,57.80
2023-05-03T11:50:55.815Z,59.80
2023-05-03T11:55:13.953Z,59.30
2023-05-03T11:59:35.896Z,58.20
2023-05-03T12:03:58.016Z,57.50
2023-05-03T12:08:17.291Z,57.30
2023-05-03T12:12:37.982Z,55.10
2023-05-03T12:17:00.395Z,58.10
2023-05-03T12:25:44.782Z,55.00
2023-05-03T12:30:02.434Z,58.10
2023-05-03T12:34:33.877Z,56.20
2023-05-03T12:38:55.984Z,56.80
2023-05-03T12:43:13.886Z,56.10
2023-05-03T12:47:31.400Z,53.80
2023-05-03T12:52:04.883Z,53.70
2023-05-03T12:56:31.884Z,54.80
2023-05-03T13:05:33.728Z,55.10
2023-05-03T13:14:14.162Z,55.00
2023-05-03T13:18:31.920Z,53.40
2023-05-03T13:22:49.460Z,54.60
2023-05-03T13:27:07.220Z,51.60
2023-05-03T13:31:24.531Z,54.50
2023-05-03T13:35:41.797Z,53.70
2023-05-03T13:39:59.134Z,53.20
2023-05-03T13:44:16.693Z,53.90
2023-05-03T13:48:34.123Z,51.10
2023-05-03T13:52:51.324Z,54.10
2023-05-03T13:57:08.966Z,55.00
2023-05-03T14:01:28.204Z,53.60
2023-05-03T14:05:45.401Z,53.30
2023-05-03T14:10:06.054Z,53.80
2023-05-03T14:14:26.945Z,53.50
2023-05-03T14:18:44.346Z,55.20
2023-05-03T14:23:03.206Z,56.60
2023-05-03T14:27:21.968Z,55.20
2023-05-03T14:31:39.182Z,58.40
2023-05-03T14:35:56.953Z,56.40
2023-05-03T14:40:14.473Z,57.80
2023-05-03T14:44:31.670Z,57.60
2023-05-03T14:48:49.366Z,55.10
2023-05-03T14:53:06.444Z,53.00
2023-05-03T14:57:26.774Z,55.80
2023-05-03T15:01:44.576Z,55.50
2023-05-03T15:06:01.827Z,56.00
2023-05-03T15:10:18.977Z,54.70
2023-05-03T15:14:36.082Z,56.10
2023-05-03T15:18:53.199Z,56.20
2023-05-03T15:23:10.339Z,57.20
2023-05-03T15:27:27.568Z,58.80
2023-05-03T15:31:44.925Z,56.50
2023-05-03T15:36:02.076Z,55.20
2023-05-03T15:40:22.340Z,59.00
2023-05-03T15:44:41.010Z,59.10
2023-05-03T15:48:58.198Z,62.20
2023-05-03T15:53:15.751Z,60.30
2023-05-03T15:57:32.963Z,62.90
2023-05-03T16:01:51.186Z,63.20
2023-05-03T16:06:09.622Z,64.80
2023-05-03T16:10:26.817Z,62.90
2023-05-03T16:14:44.032Z,64.30
2023-05-03T16:19:01.153Z,63.70
2023-05-03T16:23:18.414Z,65.10
2023-05-03T16:27:35.649Z,65.50
2023-05-03T16:31:53.047Z,65.60
2023-05-03T16:36:10.422Z,64.30
2023-05-03T16:40:27.933Z,66.80
2023-05-03T16:44:45.095Z,64.80
2023-05-03T16:49:03.133Z,64.00
2023-05-03T16:53:20.819Z,64.80
2023-05-03T16:57:38.514Z,65.60
2023-05-03T17:01:55.770Z,63.00
2023-05-03T17:06:13.034Z,63.00
2023-05-03T17:10:31.526Z,63.00
2023-05-03T17:14:48.730Z,64.30
2023-05-03T17:19:05.989Z,64.10
2023-05-03T17:23:23.090Z,65.10
2023-05-03T17:27:42.319Z,64.90
2023-05-03T17:31:59.615Z,66.80
2023-05-03T17:36:16.917Z,66.90
2023-05-03T17:40:35.064Z,67.10
2023-05-03T17:44:54.718Z,68.50
2023-05-03T17:49:11.876Z,69.00
2023-05-03T17:53:29.027Z,70.00
2023-05-03T17:57:46.394Z,71.60
2023-05-03T18:02:03.814Z,72.90
2023-05-03T18:06:21.337Z,74.20
2023-05-03T18:10:41.713Z,74.90
2023-05-03T18:15:01.993Z,77.50
2023-05-03T18:19:19.381Z,78.60
2023-05-03T18:23:36.756Z,80.60
2023-05-03T18:27:54.194Z,84.30
2023-05-03T18:32:11.549Z,85.40
2023-05-03T18:36:28.898Z,90.30
2023-05-03T18:40:47.012Z,93.00
2023-05-03T18:45:04.763Z,95.80
2023-05-03T18:49:22.103Z,99.10
2023-05-03T18:53:39.624Z,99.90
2023-05-03T18:57:56.976Z,99.90
2023-05-03T19:02:14.485Z,99.90
2023-05-03T19:06:31.852Z,99.90
2023-05-03T19:10:49.481Z,99.90
2023-05-03T19:15:07.403Z,99.90
2023-05-03T19:19:24.739Z,99.90
2023-05-03T19:23:42.252Z,99.90
2023-05-03T19:27:59.600Z,99.90
2023-05-03T19:32:16.928Z,99.90
2023-05-03T19:36:34.298Z,99.90
2023-05-03T19:40:58.973Z,99.90
2023-05-03T19:45:16.342Z,99.90
2023-05-03T19:49:33.751Z,99.90
2023-05-03T19:53:51.187Z,99.90
2023-05-03T19:58:08.718Z,99.90
2023-05-03T20:02:26.139Z,99.90
2023-05-03T20:06:43.655Z,99.90
2023-05-03T20:11:01.048Z,99.90
2023-05-03T20:15:18.431Z,99.90
2023-05-03T20:19:35.704Z,99.90
2023-05-03T20:23:53.171Z,99.90
2023-05-03T20:28:10.527Z,99.90
2023-05-03T20:32:28.464Z,99.90
2023-05-03T20:36:45.682Z,99.90
2023-05-03T20:41:02.813Z,99.90
2023-05-03T20:45:19.952Z,99.90
2023-05-03T20:49:38.705Z,99.90
2023-05-03T20:53:56.030Z,99.90
2023-05-03T20:58:15.259Z,99.90
2023-05-03T21:02:32.451Z,99.90
2023-05-03T21:06:49.708Z,99.90
2023-05-03T21:11:07.042Z,99.90
2023-05-03T21:15:24.180Z,99.90
2023-05-03T21:19:41.314Z,99.90
2023-05-03T21:23:58.461Z,99.90
2023-05-03T21:28:15.664Z,99.90
2023-05-03T21:32:33.341Z,99.90
2023-05-03T21:36:50.599Z,99.90
2023-05-03T21:41:08.033Z,99.90
2023-05-03T21:45:25.187Z,99.90
2023-05-03T21:49:42.508Z,99.90
2023-05-03T21:53:59.740Z,99.90
2023-05-03T21:58:16.954Z,99.90
2023-05-03T22:02:34.123Z,99.90
2023-05-03T22:06:51.801Z,99.90
2023-05-03T22:11:09.412Z,99.90
2023-05-03T22:15:26.642Z,99.90
2023-05-03T22:19:43.788Z,99.90
2023-05-03T22:24:01.230Z,99.90
2023-05-03T22:28:18.394Z,99.90
2023-05-03T22:32:35.545Z,99.90
2023-05-03T22:36:52.671Z,99.90
2023-05-03T22:41:09.887Z,99.90
2023-05-03T22:45:27.099Z,99.90
2023-05-03T22:49:44.460Z,99.90
2023-05-03T22:54:01.553Z,99.90
2023-05-03T22:58:18.652Z,99.90
2023-05-03T23:02:35.908Z,99.90
2023-05-03T23:06:53.626Z,99.90
2023-05-03T23:11:11.051Z,99.90
2023-05-03T23:15:29.459Z,99.90
2023-05-03T23:19:46.689Z,99.90
2023-05-03T23:24:03.905Z,99.90
2023-05-03T23:28:21.169Z,99.90
2023-05-03T23:32:38.777Z,99.90
2023-05-03T23:36:56.375Z,99.90
2023-05-03T23:41:13.501Z,99.90
2023-05-03T23:45:30.842Z,99.90
2023-05-03T23:49:48.111Z,99.90
2023-05-03T23:54:05.462Z,99.90
2023-05-03T23:58:22.611Z,99.90
